• Join FlightAware (Why Join?)
  • Login
  • US Flag 
01:46AM EDT


 

Airport Tracker/Info


-or-


 

Live Flight TrackerFlight Track Log ✈ N1944E ✈ 09-Jan-2014 ✈ KCOD - KRKS

Flight Track Log - Related Links

Times and Time Zones

All times are in EST time to prevent confusion due to time zone crossing. See the N1944E flight status page for this flight to view local times or setup timezone preferences in your user account.

Time Position Orientation Groundspeed Altitude Reporting Facility
EST Latitude Longitude Course Direction KTS MPH feet Rate Location/Type
05:19PM 44.4753 -109.0394 159° South 121 139 6,700  Level Salt Lake Center
05:20PM 44.4372 -109.0194 159° South 145 167 7,300 720 Climbing Salt Lake Center
05:21PM 44.3964 -109.0250 186° South 146 168 8,200 840 Climbing Salt Lake Center
05:22PM 44.3567 -109.0283 183° South 146 168 9,100 900 Climbing Salt Lake Center
05:23PM 44.3167 -109.0322 184° South 144 166 10,100 840 Climbing Salt Lake Center
05:24PM 44.2750 -109.0325 180° South 146 168 10,900 1,020 Climbing Salt Lake Center
05:25PM 44.2247 -109.0339 181° South 149 171 12,300 1,080 Climbing Salt Lake Center
05:26PM 44.1833 -109.0317 178° South 149 171 13,200 960 Climbing Salt Lake Center
05:27PM 44.1400 -109.0317 180° South 151 174 14,300 840 Climbing Salt Lake Center
05:28PM 44.0958 -109.0328 181° South 155 178 15,000 360 Climbing Salt Lake Center
05:29PM 44.0439 -109.0356 182° South 167 192 15,100  Climbing Salt Lake Center
05:30PM 43.9897 -109.0356 180° South 181 208 15,100  Level Salt Lake Center
05:31PM 43.9375 -109.0339 179° South 187 215 15,100 180 Level Salt Lake Center
05:32PM 43.8786 -109.0386 183° South 182 209 15,500 300 Climbing Salt Lake Center
05:33PM 43.8339 -109.0369 178° South 168 193 15,800 240 Climbing Salt Lake Center
05:34PM 43.7908 -109.0364 179° South 160 184 16,000 60 Climbing Salt Lake Center
05:35PM 43.7442 -109.0394 183° South 162 186 16,000  Level Salt Lake Center
05:36PM 43.6947 -109.0403 181° South 169 194 16,000  Level Salt Lake Center
05:37PM 43.6439 -109.0406 180° South 176 203 16,000  Level Salt Lake Center
05:38PM 43.5939 -109.0414 181° South 180 207 16,000  Level Salt Lake Center
05:40PM 43.5344 -109.0439 182° South 179 206 16,000  Level Salt Lake Center
05:41PM 43.4831 -109.0447 181° South 181 208 16,000  Level Salt Lake Center
05:42PM 43.4308 -109.0453 180° South 185 213 16,000  Level Salt Lake Center
05:43PM 43.3786 -109.0392 175° South 186 214 16,000  Level Salt Lake Center
05:44PM 43.3256 -109.0314 174° South 189 217 16,000  Level Salt Lake Center
05:45PM 43.2714 -109.0206 172° South 195 224 16,000  Level Salt Lake Center
05:46PM 43.2183 -109.0128 174° South 194 223 16,000  Level Salt Lake Center
05:47PM 43.1508 -109.0053 175° South 201 231 16,000  Level Salt Lake Center
05:48PM 43.0947 -108.9972 174° South 203 234 16,000  Level Salt Lake Center
05:49PM 43.0383 -108.9872 173° South 204 235 16,000  Level Salt Lake Center
05:50PM 42.9853 -108.9831 177° South 195 224 16,000  Level Salt Lake Center
05:51PM 42.9325 -108.9778 176° South 190 219 16,000 -60 Level Salt Lake Center
05:52PM 42.8753 -108.9658 171° South 187 215 15,900 -60 Descending Salt Lake Center
05:53PM 42.8283 -108.9581 173° South 180 207 15,900  Level Salt Lake Center
05:54PM 42.7733 -108.9511 175° South 178 205 15,900  Level Salt Lake Center
05:55PM 42.7272 -108.9456 175° South 175 201 15,900  Level Salt Lake Center
05:56PM 42.6808 -108.9414 176° South 175 201 15,900  Level Salt Lake Center
05:57PM 42.6264 -108.9339 174° South 176 203 15,900  Level Salt Lake Center
05:58PM 42.5800 -108.9239 171° South 175 201 15,900  Level Salt Lake Center
05:59PM 42.5256 -108.9058 166° South 178 205 15,900  Level Salt Lake Center
06:00PM 42.4767 -108.8908 167° South 185 213 15,900  Level Salt Lake Center
06:01PM 42.4200 -108.8742 168° South 187 215 16,000  Climbing Salt Lake Center
06:02PM 42.3694 -108.8614 169° South 190 219 16,000  Level Salt Lake Center
06:03PM 42.3197 -108.8483 169° South 190 219 16,000  Level Salt Lake Center
06:04PM 42.2622 -108.8339 169° South 189 217 16,000 -300 Level Salt Lake Center
06:05PM 42.2136 -108.8197 168° South 187 215 15,500 -840 Descending Salt Lake Center
06:06PM 42.1475 -108.8072 172° South 207 238 14,300 -1,020 Descending Salt Lake Center
06:07PM 42.0914 -108.7950 171° South 211 243 13,500 -720 Descending Salt Lake Center
06:08PM 42.0258 -108.7814 171° South 213 245 12,900 -780 Descending Salt Lake Center
06:09PM 41.9703 -108.7736 174° South 211 243 11,900 -480 Descending Salt Lake Center
06:10PM 41.9069 -108.7653 174° South 208 239 12,000  Climbing Salt Lake Center
06:11PM 41.8575 -108.7569 173° South 197 227 12,000 -420 Level Salt Lake Center
06:12PM 41.8072 -108.7503 174° South 191 220 11,200 -540 Descending Salt Lake Center
06:13PM 41.7428 -108.7439 176° South 199 229 11,000 -120 Descending Salt Lake Center
06:14PM 41.6931 -108.7356 173° South 196 226 11,000 -480 Level Salt Lake Center
06:16PM 41.6339 -108.7264 173° South 191 220 10,100 -540 Descending Salt Lake Center
06:17PM 41.5817 -108.7161 172° South 195 224 10,000 -60 Descending Salt Lake Center
06:18PM 41.5464 -108.7356 202° Southwest 172 198 10,000 -360 Level Salt Lake Center
06:19PM 41.5433 -108.7872 265° West 138 159 9,300 -600 Descending Salt Lake Center
06:20PM 41.5556 -108.8392 287° West 150 173 8,800 -300 Descending Salt Lake Center
06:21PM 41.5633 -108.8842 283° West 126 145 8,800  Level Salt Lake Center
06:22PM 41.5694 -108.9175 284° West 103 119 8,800 -300 Level Salt Lake Center
06:23PM 41.5767 -108.9603 283° West 103 119 8,200 -540 Descending Salt Lake Center
06:24PM 41.5822 -108.9947 282° West 102 117 7,700 -540 Descending Salt Lake Center
06:25PM 41.5892 -109.0350 283° West 100 115 7,100 -480 Descending Salt Lake Center
06:26PM 41.5933 -109.0592 283° West 74 85 6,800 -300 Descending Salt Lake Center